WIDD/BTH METAR and TAF weather

Enter ICAO airport designator
Station Type Date Time Source
WIDD METAR 2019/07/17 05:00 UTC NOAA

WIDD 170500Z 12004KT 9999 SCT014 31/23 Q1010


Station Type Date Time Source
WIDD Decoded METAR 2019/07/17 05:00 UTC NOAA

Station name not available
Jul 17, 2019 - 01:00 AM EDT / 2019.07.17 0500 UTC
Wind: from the ESE (120 degrees) at 5 MPH (4 KT):0
Visibility: greater than 7 mile(s):0
Sky conditions: partly cloudy
Temperature: 87 F (31 C)
Heat index: 93.9 F (34.4 C):1
Dew Point: 73 F (23 C)
Relative Humidity: 62%
Pressure (altimeter): 29.83 in. Hg (1010 hPa)
ob: WIDD 170500Z 12004KT 9999 SCT014 31/23 Q1010
cycle: 5

Station Type Date Time Source
WIDD TAF 2019/07/17 18:00 UTC NOAA

TAF WIDD 171700Z 1718/1818 16005KT 9000 FEW014=

Example: see airport list